createdAt,value
2022-12-25T00:00:35.015Z,94.59
2022-12-25T00:03:03.838Z,94.84
2022-12-25T00:05:32.515Z,94.83
2022-12-25T00:08:02.618Z,94.82
2022-12-25T00:10:31.604Z,95.01
2022-12-25T00:13:00.240Z,94.92
2022-12-25T00:15:28.934Z,94.93
2022-12-25T00:17:57.582Z,94.74
2022-12-25T00:20:26.252Z,94.89
2022-12-25T00:22:55.080Z,95.10
2022-12-25T00:25:25.012Z,94.91
2022-12-25T00:27:53.641Z,94.90
2022-12-25T00:30:22.284Z,94.90
2022-12-25T00:32:50.903Z,95.43
2022-12-25T00:35:19.609Z,95.14
2022-12-25T00:37:48.170Z,95.13
2022-12-25T00:40:16.814Z,94.86
2022-12-25T00:42:46.788Z,95.10
2022-12-25T00:45:16.016Z,95.50
2022-12-25T00:47:44.694Z,95.07
2022-12-25T00:50:13.336Z,95.42
2022-12-25T00:52:41.922Z,95.68
2022-12-25T00:55:11.239Z,95.64
2022-12-25T00:57:41.143Z,95.69
2022-12-25T01:00:12.551Z,95.62
2022-12-25T01:02:41.249Z,95.34
2022-12-25T01:05:11.037Z,95.50
2022-12-25T01:07:39.759Z,95.34
2022-12-25T01:10:25.074Z,95.85
2022-12-25T01:12:53.514Z,96.01
2022-12-25T01:15:23.531Z,96.32
2022-12-25T01:17:52.202Z,97.27
2022-12-25T01:20:20.915Z,97.10
2022-12-25T01:22:49.596Z,97.72
2022-12-25T01:25:18.307Z,97.93
2022-12-25T01:27:46.863Z,98.08
2022-12-25T01:30:15.745Z,98.25
2022-12-25T01:32:45.721Z,98.58
2022-12-25T01:35:14.447Z,98.83
2022-12-25T01:37:43.035Z,99.05
2022-12-25T01:40:12.227Z,98.98
2022-12-25T01:42:40.906Z,99.00
2022-12-25T01:45:31.732Z,99.21
2022-12-25T01:48:03.386Z,98.88
2022-12-25T01:50:32.207Z,99.32
2022-12-25T01:53:00.855Z,99.57
2022-12-25T01:55:29.884Z,99.25
2022-12-25T01:57:58.743Z,99.07
2022-12-25T02:00:27.289Z,99.33
2022-12-25T02:02:56.245Z,98.92
2022-12-25T02:05:30.160Z,99.21
2022-12-25T02:08:01.243Z,99.33
2022-12-25T02:10:29.944Z,99.13
2022-12-25T02:12:58.615Z,99.36
2022-12-25T02:15:31.428Z,98.81
2022-12-25T02:18:03.361Z,98.99
2022-12-25T02:20:53.123Z,99.13
2022-12-25T02:24:01.714Z,99.26
2022-12-25T02:27:02.478Z,99.31
2022-12-25T02:29:38.220Z,99.20
2022-12-25T02:32:12.368Z,99.33
2022-12-25T02:34:45.537Z,99.16
2022-12-25T02:37:16.858Z,99.73
2022-12-25T02:39:59.883Z,99.70
2022-12-25T02:43:00.185Z,99.80
2022-12-25T02:45:54.022Z,99.63
2022-12-25T02:48:43.221Z,99.44
2022-12-25T02:51:32.926Z,99.07
2022-12-25T02:54:22.001Z,99.36
2022-12-25T02:57:08.730Z,99.34
2022-12-25T02:59:56.963Z,99.55
2022-12-25T03:02:45.054Z,99.46
2022-12-25T03:05:35.588Z,99.78
2022-12-25T03:08:07.897Z,100.00
2022-12-25T03:10:53.471Z,100.00
2022-12-25T03:13:24.875Z,100.00
2022-12-25T03:16:11.180Z,100.00
2022-12-25T03:18:41.286Z,100.00
2022-12-25T03:21:27.940Z,100.00
2022-12-25T03:24:19.300Z,100.00
2022-12-25T03:26:57.405Z,100.00
2022-12-25T03:29:44.976Z,100.00
2022-12-25T03:32:23.833Z,100.00
2022-12-25T03:35:19.199Z,100.00
2022-12-25T03:38:18.520Z,100.00
2022-12-25T03:41:14.604Z,100.00
2022-12-25T03:44:07.178Z,100.00
2022-12-25T03:47:06.894Z,100.00
2022-12-25T03:50:00.011Z,100.00
2022-12-25T03:52:48.383Z,100.00
2022-12-25T03:55:35.053Z,100.00
2022-12-25T03:58:20.882Z,100.00
2022-12-25T04:01:07.016Z,100.00
2022-12-25T04:03:53.097Z,100.00
2022-12-25T04:06:38.750Z,100.00
2022-12-25T04:09:26.211Z,100.00
2022-12-25T04:12:12.230Z,100.00
2022-12-25T04:14:58.377Z,100.00
2022-12-25T04:17:44.663Z,100.00
2022-12-25T04:20:30.822Z,100.00
2022-12-25T04:23:17.666Z,100.00
2022-12-25T04:26:05.445Z,100.00
2022-12-25T04:28:51.680Z,100.00
2022-12-25T04:31:38.947Z,100.00
2022-12-25T04:34:25.333Z,100.00
2022-12-25T04:36:53.959Z,100.00
2022-12-25T04:39:22.699Z,100.00
2022-12-25T04:41:52.637Z,100.00
2022-12-25T04:44:21.256Z,100.00
2022-12-25T04:46:50.025Z,100.00
2022-12-25T04:49:18.681Z,100.00
2022-12-25T04:51:47.247Z,100.00
2022-12-25T04:54:15.875Z,100.00
2022-12-25T04:56:46.010Z,100.00
2022-12-25T04:59:16.208Z,100.00
2022-12-25T05:01:44.812Z,100.00
2022-12-25T05:04:13.655Z,100.00
2022-12-25T05:06:42.338Z,100.00
2022-12-25T05:09:11.728Z,100.00
2022-12-25T05:11:40.276Z,100.00
2022-12-25T05:14:09.074Z,100.00
2022-12-25T05:16:39.047Z,100.00
2022-12-25T05:19:07.771Z,100.00
2022-12-25T05:21:36.396Z,100.00
2022-12-25T05:24:05.330Z,100.00
2022-12-25T05:26:33.944Z,100.00
2022-12-25T05:29:02.620Z,100.00
2022-12-25T05:31:31.233Z,100.00
2022-12-25T05:34:01.228Z,100.00
2022-12-25T05:36:30.060Z,100.00
2022-12-25T05:38:58.795Z,100.00
2022-12-25T05:41:33.793Z,100.00
2022-12-25T05:44:03.004Z,100.00
2022-12-25T05:46:31.700Z,100.00
2022-12-25T05:49:01.853Z,100.00
2022-12-25T05:51:30.754Z,100.00
2022-12-25T05:53:59.523Z,100.00
2022-12-25T05:56:28.252Z,100.00
2022-12-25T05:58:56.900Z,100.00
2022-12-25T06:01:28.015Z,100.00
2022-12-25T06:03:57.386Z,100.00
2022-12-25T06:06:27.479Z,100.00
2022-12-25T06:08:56.535Z,100.00
2022-12-25T06:11:25.729Z,100.00
2022-12-25T06:13:54.815Z,100.00
2022-12-25T06:16:23.499Z,100.00
2022-12-25T06:18:54.121Z,100.00
2022-12-25T06:21:22.731Z,100.00
2022-12-25T06:23:52.752Z,100.00
2022-12-25T06:26:21.938Z,100.00
2022-12-25T06:28:50.707Z,100.00
2022-12-25T06:31:22.125Z,100.00
2022-12-25T06:33:51.866Z,100.00
2022-12-25T06:36:22.393Z,100.00
2022-12-25T06:38:53.215Z,100.00
2022-12-25T06:41:23.631Z,100.00
2022-12-25T06:43:53.317Z,100.00
2022-12-25T06:46:23.068Z,100.00
2022-12-25T06:48:52.218Z,100.00
2022-12-25T06:51:22.635Z,100.00
2022-12-25T06:53:53.492Z,100.00
2022-12-25T06:56:26.259Z,100.00
2022-12-25T06:58:56.652Z,100.00
2022-12-25T07:01:27.247Z,100.00
2022-12-25T07:03:58.430Z,100.00
2022-12-25T07:06:27.108Z,100.00
2022-12-25T07:08:57.255Z,100.00
2022-12-25T07:11:26.093Z,100.00
2022-12-25T07:13:54.772Z,100.00
2022-12-25T07:16:23.487Z,100.00
2022-12-25T07:18:52.142Z,100.00
2022-12-25T07:21:22.442Z,100.00
2022-12-25T07:23:52.098Z,100.00
2022-12-25T07:26:22.161Z,100.00
2022-12-25T07:28:50.825Z,100.00
2022-12-25T07:31:20.107Z,100.00
2022-12-25T07:33:49.113Z,100.00
2022-12-25T07:36:17.889Z,100.00
2022-12-25T07:38:49.022Z,100.00
2022-12-25T07:41:18.133Z,100.00
2022-12-25T07:43:52.083Z,100.00
2022-12-25T07:46:21.153Z,100.00
2022-12-25T07:48:50.060Z,100.00
2022-12-25T07:51:18.680Z,100.00
2022-12-25T07:53:47.570Z,100.00
2022-12-25T07:56:18.469Z,100.00
2022-12-25T07:58:49.245Z,100.00
2022-12-25T08:01:20.293Z,100.00
2022-12-25T08:03:51.489Z,100.00
2022-12-25T08:06:21.198Z,100.00
2022-12-25T08:08:50.390Z,100.00
2022-12-25T08:11:19.125Z,100.00
2022-12-25T08:13:49.327Z,100.00
2022-12-25T08:16:18.061Z,100.00
2022-12-25T08:18:46.745Z,100.00
2022-12-25T08:21:17.189Z,100.00
2022-12-25T08:23:47.056Z,100.00
2022-12-25T08:26:17.717Z,100.00
2022-12-25T08:28:47.918Z,100.00
2022-12-25T08:31:18.702Z,100.00
2022-12-25T08:33:48.294Z,100.00
2022-12-25T08:36:17.660Z,100.00
2022-12-25T08:38:46.570Z,100.00
2022-12-25T08:41:16.269Z,100.00
2022-12-25T08:43:45.236Z,100.00
2022-12-25T08:46:15.484Z,100.00
2022-12-25T08:48:46.105Z,100.00
2022-12-25T08:51:16.365Z,100.00
2022-12-25T08:53:45.593Z,100.00
2022-12-25T08:56:15.255Z,100.00
2022-12-25T08:58:44.297Z,100.00
2022-12-25T09:01:14.445Z,100.00
2022-12-25T09:03:43.509Z,100.00
2022-12-25T09:06:14.691Z,100.00
2022-12-25T09:08:48.635Z,100.00
2022-12-25T09:11:19.630Z,100.00
2022-12-25T09:13:49.318Z,100.00
2022-12-25T09:16:22.552Z,100.00
2022-12-25T09:18:51.718Z,100.00
2022-12-25T09:21:20.736Z,100.00
2022-12-25T09:23:49.468Z,100.00
2022-12-25T09:26:19.319Z,100.00
2022-12-25T09:28:51.887Z,100.00
2022-12-25T09:31:23.713Z,100.00
2022-12-25T09:33:52.606Z,100.00
2022-12-25T09:36:23.341Z,100.00
2022-12-25T09:38:52.841Z,100.00
2022-12-25T09:41:28.307Z,100.00
2022-12-25T09:43:59.399Z,100.00
2022-12-25T09:46:36.670Z,100.00
2022-12-25T09:49:09.498Z,100.00
2022-12-25T09:51:39.657Z,100.00
2022-12-25T09:54:18.540Z,100.00
2022-12-25T09:56:47.210Z,100.00
2022-12-25T09:59:22.550Z,100.00
2022-12-25T10:02:08.024Z,100.00
2022-12-25T10:04:52.735Z,99.66
2022-12-25T10:07:28.016Z,97.87
2022-12-25T10:10:08.488Z,97.30
2022-12-25T10:12:46.482Z,95.39
2022-12-25T10:15:23.945Z,95.24
2022-12-25T10:18:06.825Z,95.22
2022-12-25T10:20:44.082Z,94.82
2022-12-25T10:23:17.369Z,94.60
2022-12-25T10:25:47.061Z,94.06
2022-12-25T10:28:19.581Z,94.01
2022-12-25T10:30:48.258Z,94.48
2022-12-25T10:33:22.965Z,93.56
2022-12-25T10:35:52.576Z,93.55
2022-12-25T10:38:21.984Z,92.73
2022-12-25T10:41:05.179Z,93.09
2022-12-25T10:43:39.906Z,93.61
2022-12-25T10:46:12.709Z,94.04
2022-12-25T10:48:44.986Z,93.19
2022-12-25T10:51:13.801Z,93.64
2022-12-25T10:53:44.271Z,91.41
2022-12-25T10:56:18.351Z,91.94
2022-12-25T10:58:47.166Z,90.49
2022-12-25T11:01:16.142Z,90.68
2022-12-25T11:03:50.498Z,91.60
2022-12-25T11:06:24.988Z,90.64
2022-12-25T11:08:56.476Z,89.45
2022-12-25T11:11:25.551Z,89.68
2022-12-25T11:13:56.124Z,89.86
2022-12-25T11:16:31.152Z,89.78
2022-12-25T11:19:01.881Z,89.36
2022-12-25T11:21:31.792Z,88.37
2022-12-25T11:24:02.219Z,88.75
2022-12-25T11:26:32.554Z,88.57
2022-12-25T11:29:01.432Z,88.19
2022-12-25T11:31:37.844Z,90.17
2022-12-25T11:34:12.610Z,89.92
2022-12-25T11:36:46.599Z,90.76
2022-12-25T11:39:24.974Z,89.89
2022-12-25T11:41:56.792Z,88.92
2022-12-25T11:44:34.630Z,87.44
2022-12-25T11:47:08.541Z,85.99
2022-12-25T11:49:50.122Z,86.11
2022-12-25T11:52:20.602Z,85.98
2022-12-25T11:54:53.321Z,85.39
2022-12-25T11:57:23.133Z,84.71
2022-12-25T11:59:55.994Z,83.38
2022-12-25T12:02:32.160Z,83.18
2022-12-25T12:05:17.365Z,82.29
2022-12-25T12:07:56.901Z,80.32
2022-12-25T12:10:37.474Z,77.58
2022-12-25T12:13:32.591Z,77.65
2022-12-25T12:16:01.324Z,77.67
2022-12-25T12:18:35.366Z,77.60
2022-12-25T12:21:12.109Z,75.88
2022-12-25T12:23:54.313Z,76.29
2022-12-25T12:26:25.167Z,76.82
2022-12-25T12:28:56.725Z,75.71
2022-12-25T12:31:26.091Z,75.59
2022-12-25T12:33:58.039Z,74.53
2022-12-25T12:36:36.226Z,74.10
2022-12-25T12:39:06.347Z,72.56
2022-12-25T12:41:46.899Z,72.98
2022-12-25T12:44:17.612Z,76.83
2022-12-25T12:46:53.446Z,76.81
2022-12-25T12:49:25.870Z,75.28
2022-12-25T12:52:08.285Z,74.87
2022-12-25T12:54:57.175Z,73.11
2022-12-25T12:57:29.287Z,72.02
2022-12-25T13:00:08.580Z,71.68
2022-12-25T13:03:02.326Z,70.65
2022-12-25T13:05:40.430Z,68.54
2022-12-25T13:08:35.781Z,68.79
2022-12-25T13:11:12.807Z,67.21
2022-12-25T13:13:44.168Z,66.35
2022-12-25T13:16:24.235Z,66.69
2022-12-25T13:18:53.867Z,66.50
2022-12-25T13:21:25.977Z,65.18
2022-12-25T13:24:01.656Z,65.13
2022-12-25T13:26:31.619Z,64.70
2022-12-25T13:28:59.957Z,64.17
2022-12-25T13:31:30.008Z,64.81
2022-12-25T13:34:00.273Z,63.35
2022-12-25T13:36:32.185Z,64.27
2022-12-25T13:39:02.024Z,63.44
2022-12-25T13:42:00.287Z,60.72
2022-12-25T13:44:38.082Z,60.16
2022-12-25T13:47:18.309Z,59.12
2022-12-25T13:49:48.002Z,59.45
2022-12-25T13:52:20.198Z,59.77
2022-12-25T13:55:02.100Z,61.13
2022-12-25T13:57:35.428Z,60.50
2022-12-25T14:00:05.752Z,62.81
2022-12-25T14:02:38.541Z,61.54
2022-12-25T14:05:25.780Z,63.68
2022-12-25T14:07:54.227Z,63.75
2022-12-25T14:10:26.416Z,63.66
2022-12-25T14:12:59.414Z,64.84
2022-12-25T14:15:32.134Z,63.58
2022-12-25T14:18:00.719Z,64.43
2022-12-25T14:20:35.325Z,63.23
2022-12-25T14:23:03.824Z,64.60
2022-12-25T14:25:44.139Z,64.11
2022-12-25T14:28:21.586Z,64.12
2022-12-25T14:30:50.326Z,64.54
2022-12-25T14:33:22.308Z,65.09
2022-12-25T14:35:51.902Z,65.19
2022-12-25T14:38:24.916Z,65.25
2022-12-25T14:41:06.407Z,65.37
2022-12-25T14:43:36.478Z,65.15
2022-12-25T14:46:07.291Z,66.11
2022-12-25T14:48:35.625Z,65.71
2022-12-25T14:51:07.064Z,66.81
2022-12-25T14:53:39.837Z,66.34
2022-12-25T14:56:10.631Z,66.78
2022-12-25T14:58:44.763Z,66.68
2022-12-25T15:01:23.120Z,66.86
2022-12-25T15:03:51.701Z,66.86
2022-12-25T15:06:24.771Z,66.70
2022-12-25T15:08:59.200Z,66.93
2022-12-25T15:11:29.429Z,67.06
2022-12-25T15:13:57.875Z,67.06
2022-12-25T15:16:28.947Z,67.47
2022-12-25T15:19:00.437Z,67.45
2022-12-25T15:21:32.358Z,67.75
2022-12-25T15:24:01.519Z,67.97
2022-12-25T15:26:33.478Z,67.88
2022-12-25T15:29:02.181Z,68.31
2022-12-25T15:31:33.337Z,68.71
2022-12-25T15:34:04.786Z,69.02
2022-12-25T15:36:34.065Z,69.27
2022-12-25T15:39:02.508Z,69.63
2022-12-25T15:41:52.640Z,69.92
2022-12-25T15:44:21.694Z,69.67
2022-12-25T15:46:50.523Z,69.65
2022-12-25T15:49:19.203Z,69.63
2022-12-25T15:51:48.077Z,69.77
2022-12-25T15:54:16.597Z,69.72
2022-12-25T15:56:49.356Z,69.71
2022-12-25T15:59:19.642Z,69.96
2022-12-25T16:01:50.967Z,69.67
2022-12-25T16:04:19.951Z,70.09
2022-12-25T16:06:48.655Z,70.14
2022-12-25T16:09:18.362Z,70.52
2022-12-25T16:11:48.404Z,70.56
2022-12-25T16:14:17.055Z,70.21
2022-12-25T16:16:45.552Z,70.18
2022-12-25T16:19:13.907Z,69.38
2022-12-25T16:21:46.358Z,69.43
2022-12-25T16:24:15.205Z,69.51
2022-12-25T16:26:43.960Z,69.22
2022-12-25T16:29:13.674Z,69.40
2022-12-25T16:31:42.391Z,69.04
2022-12-25T16:34:11.529Z,69.27
2022-12-25T16:36:40.184Z,69.52
2022-12-25T16:39:08.552Z,69.58
2022-12-25T16:41:37.051Z,68.81
2022-12-25T16:44:09.546Z,66.89
2022-12-25T16:46:41.520Z,66.49
2022-12-25T16:49:09.913Z,65.97
2022-12-25T16:51:38.222Z,65.59
2022-12-25T16:54:07.119Z,65.67
2022-12-25T16:56:36.511Z,65.35
2022-12-25T16:59:04.841Z,65.23
2022-12-25T17:01:33.298Z,64.67
2022-12-25T17:04:03.485Z,65.17
2022-12-25T17:06:32.085Z,65.03
2022-12-25T17:09:03.727Z,64.57
2022-12-25T17:11:33.535Z,65.38
2022-12-25T17:14:05.229Z,64.70
2022-12-25T17:16:36.244Z,64.08
2022-12-25T17:19:12.207Z,63.34
2022-12-25T17:21:40.561Z,63.50
2022-12-25T17:24:10.176Z,63.04
2022-12-25T17:26:40.744Z,64.13
2022-12-25T17:29:09.755Z,64.01
2022-12-25T17:31:38.421Z,64.00
2022-12-25T17:34:09.660Z,63.92
2022-12-25T17:36:38.306Z,63.26
2022-12-25T17:39:07.779Z,62.84
2022-12-25T17:41:36.304Z,62.92
2022-12-25T17:44:04.820Z,62.89
2022-12-25T17:46:33.637Z,62.93
2022-12-25T17:49:02.762Z,63.16
2022-12-25T17:51:33.487Z,63.46
2022-12-25T17:54:03.991Z,63.34
2022-12-25T17:56:33.270Z,63.41
2022-12-25T17:59:06.859Z,63.30
2022-12-25T18:01:37.608Z,63.45
2022-12-25T18:04:07.535Z,63.80
2022-12-25T18:06:38.031Z,63.71
2022-12-25T18:09:07.721Z,63.87
2022-12-25T18:11:39.951Z,63.66
2022-12-25T18:14:10.870Z,63.82
2022-12-25T18:16:41.964Z,63.65
2022-12-25T18:19:11.023Z,63.84
2022-12-25T18:21:40.679Z,63.44
2022-12-25T18:24:09.899Z,63.89
2022-12-25T18:26:38.374Z,63.80
2022-12-25T18:29:07.818Z,63.61
2022-12-25T18:31:36.967Z,63.60
2022-12-25T18:34:05.488Z,63.98
2022-12-25T18:36:33.830Z,63.68
2022-12-25T18:39:03.689Z,63.59
2022-12-25T18:41:52.041Z,63.90
2022-12-25T18:44:20.435Z,64.05
2022-12-25T18:46:48.751Z,64.05
2022-12-25T18:49:17.105Z,64.05
2022-12-25T18:51:45.430Z,64.38
2022-12-25T18:54:15.209Z,64.09
2022-12-25T18:56:43.636Z,64.39
2022-12-25T18:59:11.984Z,64.85
2022-12-25T19:01:40.440Z,64.97
2022-12-25T19:04:12.550Z,65.47
2022-12-25T19:06:41.288Z,65.12
2022-12-25T19:09:10.022Z,65.27
2022-12-25T19:11:46.115Z,65.46
2022-12-25T19:14:15.440Z,65.58
2022-12-25T19:16:43.806Z,65.75
2022-12-25T19:19:12.973Z,65.63
2022-12-25T19:21:41.745Z,65.63
2022-12-25T19:24:10.372Z,65.66
2022-12-25T19:26:40.711Z,65.94
2022-12-25T19:29:09.098Z,65.80
2022-12-25T19:31:38.315Z,65.74
2022-12-25T19:34:06.848Z,66.41
2022-12-25T19:36:35.816Z,67.02
2022-12-25T19:39:05.440Z,66.42
2022-12-25T19:41:34.373Z,66.08
2022-12-25T19:44:04.507Z,65.46
2022-12-25T19:46:36.067Z,65.43
2022-12-25T19:49:05.291Z,65.54
2022-12-25T19:51:37.104Z,65.58
2022-12-25T19:54:07.211Z,65.88
2022-12-25T19:56:35.746Z,65.75
2022-12-25T19:59:05.638Z,65.86
2022-12-25T20:01:34.331Z,65.80
2022-12-25T20:04:03.631Z,66.02
2022-12-25T20:06:34.136Z,66.14
2022-12-25T20:09:07.436Z,66.27
2022-12-25T20:11:37.566Z,66.21
2022-12-25T20:14:09.026Z,66.65
2022-12-25T20:16:38.814Z,66.47
2022-12-25T20:19:07.954Z,66.33
2022-12-25T20:21:36.334Z,66.56
2022-12-25T20:24:06.085Z,66.54
2022-12-25T20:26:34.387Z,66.19
2022-12-25T20:29:02.915Z,66.31
2022-12-25T20:31:34.642Z,66.38
2022-12-25T20:34:07.618Z,66.13
2022-12-25T20:36:37.560Z,66.44
2022-12-25T20:39:09.450Z,66.21
2022-12-25T20:41:38.698Z,66.35
2022-12-25T20:44:08.542Z,66.12
2022-12-25T20:46:38.479Z,66.13
2022-12-25T20:49:07.875Z,66.22
2022-12-25T20:51:36.688Z,66.48
2022-12-25T20:54:08.528Z,66.68
2022-12-25T20:56:38.745Z,66.55
2022-12-25T20:59:07.224Z,66.61
2022-12-25T21:01:37.104Z,66.59
2022-12-25T21:04:05.562Z,66.75
2022-12-25T21:06:33.930Z,66.76
2022-12-25T21:09:02.469Z,66.76
2022-12-25T21:11:31.403Z,66.62
2022-12-25T21:14:00.248Z,66.65
2022-12-25T21:16:28.834Z,66.81
2022-12-25T21:18:58.804Z,66.59
2022-12-25T21:21:27.558Z,66.78
2022-12-25T21:23:57.850Z,66.48
2022-12-25T21:26:31.312Z,66.92
2022-12-25T21:29:02.227Z,66.59
2022-12-25T21:31:52.011Z,66.43
2022-12-25T21:34:20.730Z,66.73
2022-12-25T21:36:49.175Z,66.82
2022-12-25T21:39:17.779Z,66.84
2022-12-25T21:41:46.199Z,66.78
2022-12-25T21:44:14.513Z,66.46
2022-12-25T21:46:43.001Z,66.81
2022-12-25T21:49:12.789Z,66.74
2022-12-25T21:52:01.166Z,66.76
2022-12-25T21:54:29.730Z,66.78
2022-12-25T21:56:58.214Z,66.96
2022-12-25T21:59:26.605Z,66.92
2022-12-25T22:01:55.213Z,66.54
2022-12-25T22:04:24.486Z,66.34
2022-12-25T22:07:11.725Z,66.41
2022-12-25T22:09:40.062Z,66.11
2022-12-25T22:12:33.516Z,66.17
2022-12-25T22:15:07.006Z,66.25
2022-12-25T22:17:55.739Z,65.66
2022-12-25T22:20:27.132Z,65.60
2022-12-25T22:22:57.622Z,66.01
2022-12-25T22:25:26.326Z,66.15
2022-12-25T22:27:55.550Z,65.94
2022-12-25T22:30:26.854Z,65.85
2022-12-25T22:32:55.787Z,65.67
2022-12-25T22:35:24.500Z,65.33
2022-12-25T22:37:53.977Z,65.36
2022-12-25T22:40:23.975Z,65.45
2022-12-25T22:42:55.128Z,65.45
2022-12-25T22:45:24.056Z,65.80
2022-12-25T22:47:52.334Z,65.32
2022-12-25T22:50:21.076Z,65.22
2022-12-25T22:52:49.344Z,65.62
2022-12-25T22:55:19.234Z,65.69
2022-12-25T22:57:49.974Z,65.45
2022-12-25T23:00:18.291Z,65.29
2022-12-25T23:02:46.647Z,65.40
2022-12-25T23:05:15.531Z,65.73
2022-12-25T23:07:43.889Z,65.88
2022-12-25T23:10:13.202Z,66.71
2022-12-25T23:12:56.627Z,66.68
2022-12-25T23:15:27.540Z,67.04
2022-12-25T23:18:13.619Z,67.35
2022-12-25T23:20:59.679Z,67.82
2022-12-25T23:23:45.864Z,68.12
2022-12-25T23:26:16.336Z,68.54
2022-12-25T23:29:03.228Z,68.64
2022-12-25T23:31:35.597Z,68.45
2022-12-25T23:34:05.867Z,68.47
2022-12-25T23:36:34.961Z,68.48
2022-12-25T23:39:09.698Z,68.58
2022-12-25T23:41:39.249Z,69.07
2022-12-25T23:44:08.267Z,68.54
2022-12-25T23:46:38.538Z,69.24
2022-12-25T23:49:08.145Z,69.44
2022-12-25T23:51:37.587Z,69.46
2022-12-25T23:54:06.835Z,69.62
2022-12-25T23:56:35.433Z,69.43
2022-12-25T23:59:05.526Z,69.66
